0TX1 – Local Weather Observations

Pecan Plantation

This weather station is operated by a private user located just north of the field. Data is gathered via OpenWeatherMap.org.

Last updated:
2020-11-25 20:07:27(2:07 pm)

Temperature: 64.0 °F

Sunrise / Sunset: 7:08 am / 5:27 pm

Civil Dawn / Dusk: 6:41 am / 5:54 pm

Nearby METARs

KGDJ 252015Z AUTO 28006KT 10SM CLR 18/M02 A3007 RMK AO2 T01811021

KCPT 252015Z AUTO 00000G13KT 10SM CLR 17/M03 A3007 RMK A01

KFWS 251950Z 29006KT 10SM CLR 18/M02 A3008

KSEP 252015Z AUTO 35003KT 10SM CLR 18/M04 A3009 RMK AO2 T01811038